sensor_id;sensor_type;location;lat;lon;timestamp;temperature;humidity
76426;DHT22;65258;42.680;23.266;2022-12-08T00:00:51;4.12;83.27
76426;DHT22;65258;42.680;23.266;2022-12-08T00:03:17;4.10;83.14
76426;DHT22;65258;42.680;23.266;2022-12-08T00:05:47;4.07;83.19
76426;DHT22;65258;42.680;23.266;2022-12-08T00:08:31;4.04;83.15
76426;DHT22;65258;42.680;23.266;2022-12-08T00:11:16;4.00;83.03
76426;DHT22;65258;42.680;23.266;2022-12-08T00:13:41;4.01;83.23
76426;DHT22;65258;42.680;23.266;2022-12-08T00:16:07;4.00;83.29
76426;DHT22;65258;42.680;23.266;2022-12-08T00:18:33;3.98;83.18
76426;DHT22;65258;42.680;23.266;2022-12-08T00:20:59;4.01;83.34
76426;DHT22;65258;42.680;23.266;2022-12-08T00:23:25;4.03;83.44
76426;DHT22;65258;42.680;23.266;2022-12-08T00:25:51;4.00;83.40
76426;DHT22;65258;42.680;23.266;2022-12-08T00:28:16;3.97;82.85
76426;DHT22;65258;42.680;23.266;2022-12-08T00:30:42;3.91;82.85
76426;DHT22;65258;42.680;23.266;2022-12-08T00:33:08;3.90;83.05
76426;DHT22;65258;42.680;23.266;2022-12-08T00:35:34;3.90;82.91
76426;DHT22;65258;42.680;23.266;2022-12-08T00:38:00;3.87;83.02
76426;DHT22;65258;42.680;23.266;2022-12-08T00:40:25;3.90;83.40
76426;DHT22;65258;42.680;23.266;2022-12-08T00:42:51;3.90;83.40
76426;DHT22;65258;42.680;23.266;2022-12-08T00:45:17;3.90;83.45
76426;DHT22;65258;42.680;23.266;2022-12-08T00:47:42;3.94;83.77
76426;DHT22;65258;42.680;23.266;2022-12-08T00:50:08;3.95;83.50
76426;DHT22;65258;42.680;23.266;2022-12-08T00:52:34;3.95;83.26
76426;DHT22;65258;42.680;23.266;2022-12-08T00:55:00;3.95;83.11
76426;DHT22;65258;42.680;23.266;2022-12-08T00:57:26;3.94;82.96
76426;DHT22;65258;42.680;23.266;2022-12-08T00:59:51;3.97;83.54
76426;DHT22;65258;42.680;23.266;2022-12-08T01:02:17;4.01;83.40
76426;DHT22;65258;42.680;23.266;2022-12-08T01:04:42;4.01;83.09
76426;DHT22;65258;42.680;23.266;2022-12-08T01:07:08;3.97;83.41
76426;DHT22;65258;42.680;23.266;2022-12-08T01:09:34;4.03;83.46
76426;DHT22;65258;42.680;23.266;2022-12-08T01:11:59;4.00;83.53
76426;DHT22;65258;42.680;23.266;2022-12-08T01:14:25;4.05;83.74
76426;DHT22;65258;42.680;23.266;2022-12-08T01:16:50;4.01;83.89
76426;DHT22;65258;42.680;23.266;2022-12-08T01:19:16;4.05;83.97
76426;DHT22;65258;42.680;23.266;2022-12-08T01:21:44;4.12;83.95
76426;DHT22;65258;42.680;23.266;2022-12-08T01:24:17;4.17;83.74
76426;DHT22;65258;42.680;23.266;2022-12-08T01:26:44;4.17;83.89
76426;DHT22;65258;42.680;23.266;2022-12-08T01:29:10;4.18;84.16
76426;DHT22;65258;42.680;23.266;2022-12-08T01:31:36;4.22;83.96
76426;DHT22;65258;42.680;23.266;2022-12-08T01:34:01;4.20;83.53
76426;DHT22;65258;42.680;23.266;2022-12-08T01:36:29;4.15;83.22
76426;DHT22;65258;42.680;23.266;2022-12-08T01:38:57;4.11;83.37
76426;DHT22;65258;42.680;23.266;2022-12-08T01:41:25;4.11;83.37
76426;DHT22;65258;42.680;23.266;2022-12-08T01:46:50;3.98;82.52
76426;DHT22;65258;42.680;23.266;2022-12-08T01:49:21;3.91;82.31
76426;DHT22;65258;42.680;23.266;2022-12-08T01:54:23;3.80;82.39
76426;DHT22;65258;42.680;23.266;2022-12-08T01:57:03;3.76;82.55
76426;DHT22;65258;42.680;23.266;2022-12-08T01:59:31;3.74;82.53
76426;DHT22;65258;42.680;23.266;2022-12-08T02:01:59;3.70;82.41
76426;DHT22;65258;42.680;23.266;2022-12-08T02:04:25;3.64;82.64
76426;DHT22;65258;42.680;23.266;2022-12-08T02:06:51;3.59;82.71
76426;DHT22;65258;42.680;23.266;2022-12-08T02:09:18;3.58;82.85
76426;DHT22;65258;42.680;23.266;2022-12-08T02:11:44;3.49;82.39
76426;DHT22;65258;42.680;23.266;2022-12-08T02:14:12;3.48;82.57
76426;DHT22;65258;42.680;23.266;2022-12-08T02:16:48;3.48;82.83
76426;DHT22;65258;42.680;23.266;2022-12-08T02:22:22;3.33;82.58
76426;DHT22;65258;42.680;23.266;2022-12-08T02:27:49;3.26;82.98
76426;DHT22;65258;42.680;23.266;2022-12-08T02:36:06;3.12;83.59
76426;DHT22;65258;42.680;23.266;2022-12-08T02:44:07;3.08;84.10
76426;DHT22;65258;42.680;23.266;2022-12-08T02:46:40;3.08;84.05
76426;DHT22;65258;42.680;23.266;2022-12-08T02:49:08;3.09;84.01
76426;DHT22;65258;42.680;23.266;2022-12-08T02:51:34;3.15;83.74
76426;DHT22;65258;42.680;23.266;2022-12-08T02:54:01;3.13;83.63
76426;DHT22;65258;42.680;23.266;2022-12-08T03:00:31;3.11;83.40
76426;DHT22;65258;42.680;23.266;2022-12-08T03:02:56;3.07;83.34
76426;DHT22;65258;42.680;23.266;2022-12-08T03:08:21;3.02;83.41
76426;DHT22;65258;42.680;23.266;2022-12-08T03:10:55;3.01;83.22
76426;DHT22;65258;42.680;23.266;2022-12-08T03:13:33;2.98;83.35
76426;DHT22;65258;42.680;23.266;2022-12-08T03:16:01;2.97;83.46
76426;DHT22;65258;42.680;23.266;2022-12-08T03:18:30;2.97;83.19
76426;DHT22;65258;42.680;23.266;2022-12-08T03:20:57;2.95;82.99
76426;DHT22;65258;42.680;23.266;2022-12-08T03:23:24;2.94;82.56
76426;DHT22;65258;42.680;23.266;2022-12-08T03:25:56;2.89;82.94
76426;DHT22;65258;42.680;23.266;2022-12-08T03:28:22;2.89;83.38
76426;DHT22;65258;42.680;23.266;2022-12-08T03:30:52;2.94;83.42
76426;DHT22;65258;42.680;23.266;2022-12-08T03:33:25;2.99;83.70
76426;DHT22;65258;42.680;23.266;2022-12-08T03:35:52;3.07;83.84
76426;DHT22;65258;42.680;23.266;2022-12-08T03:38:19;3.11;83.59
76426;DHT22;65258;42.680;23.266;2022-12-08T03:40:45;3.18;83.27
76426;DHT22;65258;42.680;23.266;2022-12-08T03:43:30;3.19;82.96
76426;DHT22;65258;42.680;23.266;2022-12-08T03:45:56;3.18;82.67
76426;DHT22;65258;42.680;23.266;2022-12-08T03:48:21;3.19;82.65
76426;DHT22;65258;42.680;23.266;2022-12-08T03:50:47;3.20;82.83
76426;DHT22;65258;42.680;23.266;2022-12-08T03:53:12;3.20;82.95
76426;DHT22;65258;42.680;23.266;2022-12-08T03:55:38;3.20;82.98
76426;DHT22;65258;42.680;23.266;2022-12-08T03:58:04;3.20;83.17
76426;DHT22;65258;42.680;23.266;2022-12-08T04:00:29;3.19;83.04
76426;DHT22;65258;42.680;23.266;2022-12-08T04:02:55;3.18;83.16
76426;DHT22;65258;42.680;23.266;2022-12-08T04:05:20;3.18;82.97
76426;DHT22;65258;42.680;23.266;2022-12-08T04:07:46;3.18;82.70
76426;DHT22;65258;42.680;23.266;2022-12-08T04:10:11;3.19;82.73
76426;DHT22;65258;42.680;23.266;2022-12-08T04:12:37;3.20;82.70
76426;DHT22;65258;42.680;23.266;2022-12-08T04:15:03;3.22;82.79
76426;DHT22;65258;42.680;23.266;2022-12-08T04:17:28;3.29;82.65
76426;DHT22;65258;42.680;23.266;2022-12-08T04:19:55;3.32;82.84
76426;DHT22;65258;42.680;23.266;2022-12-08T04:22:20;3.40;83.05
76426;DHT22;65258;42.680;23.266;2022-12-08T04:24:46;3.38;83.06
76426;DHT22;65258;42.680;23.266;2022-12-08T04:27:11;3.44;83.23
76426;DHT22;65258;42.680;23.266;2022-12-08T04:29:37;3.48;83.25
76426;DHT22;65258;42.680;23.266;2022-12-08T04:32:03;3.58;83.25
76426;DHT22;65258;42.680;23.266;2022-12-08T04:34:28;3.64;82.95
76426;DHT22;65258;42.680;23.266;2022-12-08T04:36:54;3.70;82.86
76426;DHT22;65258;42.680;23.266;2022-12-08T04:39:19;3.74;82.92
76426;DHT22;65258;42.680;23.266;2022-12-08T04:41:45;3.77;83.14
76426;DHT22;65258;42.680;23.266;2022-12-08T04:44:10;3.84;83.15
76426;DHT22;65258;42.680;23.266;2022-12-08T04:46:36;3.93;83.15
76426;DHT22;65258;42.680;23.266;2022-12-08T04:49:01;3.97;83.16
76426;DHT22;65258;42.680;23.266;2022-12-08T04:51:27;4.07;83.01
76426;DHT22;65258;42.680;23.266;2022-12-08T04:53:52;4.12;82.75
76426;DHT22;65258;42.680;23.266;2022-12-08T04:56:18;4.18;82.47
76426;DHT22;65258;42.680;23.266;2022-12-08T04:58:44;4.22;82.44
76426;DHT22;65258;42.680;23.266;2022-12-08T05:01:10;4.22;82.42
76426;DHT22;65258;42.680;23.266;2022-12-08T05:03:36;4.28;82.46
76426;DHT22;65258;42.680;23.266;2022-12-08T05:06:02;4.35;82.34
76426;DHT22;65258;42.680;23.266;2022-12-08T05:08:28;4.41;82.15
76426;DHT22;65258;42.680;23.266;2022-12-08T05:11:00;4.46;82.08
76426;DHT22;65258;42.680;23.266;2022-12-08T05:13:26;4.28;82.95
76426;DHT22;65258;42.680;23.266;2022-12-08T05:15:51;4.24;83.39
76426;DHT22;65258;42.680;23.266;2022-12-08T05:18:17;4.31;83.73
76426;DHT22;65258;42.680;23.266;2022-12-08T05:20:42;4.32;83.81
76426;DHT22;65258;42.680;23.266;2022-12-08T05:23:08;4.37;83.78
76426;DHT22;65258;42.680;23.266;2022-12-08T05:25:33;4.49;83.46
76426;DHT22;65258;42.680;23.266;2022-12-08T05:27:59;4.51;83.20
76426;DHT22;65258;42.680;23.266;2022-12-08T05:30:24;4.49;82.77
76426;DHT22;65258;42.680;23.266;2022-12-08T05:32:50;4.49;82.49
76426;DHT22;65258;42.680;23.266;2022-12-08T05:35:15;4.52;82.30
76426;DHT22;65258;42.680;23.266;2022-12-08T05:37:41;4.49;82.13
76426;DHT22;65258;42.680;23.266;2022-12-08T05:40:07;4.42;82.09
76426;DHT22;65258;42.680;23.266;2022-12-08T05:42:32;4.38;82.34
76426;DHT22;65258;42.680;23.266;2022-12-08T05:44:58;4.31;82.42
76426;DHT22;65258;42.680;23.266;2022-12-08T05:47:24;4.20;82.46
76426;DHT22;65258;42.680;23.266;2022-12-08T05:49:49;4.12;82.54
76426;DHT22;65258;42.680;23.266;2022-12-08T05:52:15;4.11;82.55
76426;DHT22;65258;42.680;23.266;2022-12-08T05:54:41;4.04;82.33
76426;DHT22;65258;42.680;23.266;2022-12-08T05:57:06;3.94;82.51
76426;DHT22;65258;42.680;23.266;2022-12-08T05:59:32;3.90;82.51
76426;DHT22;65258;42.680;23.266;2022-12-08T06:01:58;3.89;82.72
76426;DHT22;65258;42.680;23.266;2022-12-08T06:04:23;3.81;83.02
76426;DHT22;65258;42.680;23.266;2022-12-08T06:06:49;3.80;83.04
76426;DHT22;65258;42.680;23.266;2022-12-08T06:09:15;3.81;83.09
76426;DHT22;65258;42.680;23.266;2022-12-08T06:11:41;3.76;82.92
76426;DHT22;65258;42.680;23.266;2022-12-08T06:14:10;3.70;83.29
76426;DHT22;65258;42.680;23.266;2022-12-08T06:16:36;3.71;83.61
76426;DHT22;65258;42.680;23.266;2022-12-08T06:19:02;3.77;83.56
76426;DHT22;65258;42.680;23.266;2022-12-08T06:21:27;3.76;83.40
76426;DHT22;65258;42.680;23.266;2022-12-08T06:23:53;3.77;83.60
76426;DHT22;65258;42.680;23.266;2022-12-08T06:26:20;3.86;83.55
76426;DHT22;65258;42.680;23.266;2022-12-08T06:28:46;3.89;83.72
76426;DHT22;65258;42.680;23.266;2022-12-08T06:31:18;3.94;83.76
76426;DHT22;65258;42.680;23.266;2022-12-08T06:33:45;4.00;83.94
76426;DHT22;65258;42.680;23.266;2022-12-08T06:36:12;4.00;84.23
76426;DHT22;65258;42.680;23.266;2022-12-08T06:38:38;4.07;84.15
76426;DHT22;65258;42.680;23.266;2022-12-08T06:41:04;4.05;84.31
76426;DHT22;65258;42.680;23.266;2022-12-08T06:43:30;4.20;84.05
76426;DHT22;65258;42.680;23.266;2022-12-08T06:45:57;4.30;83.86
76426;DHT22;65258;42.680;23.266;2022-12-08T06:48:23;4.54;83.99
76426;DHT22;65258;42.680;23.266;2022-12-08T06:50:48;4.77;84.46
76426;DHT22;65258;42.680;23.266;2022-12-08T06:53:14;4.87;84.00
76426;DHT22;65258;42.680;23.266;2022-12-08T06:55:50;5.28;83.47
76426;DHT22;65258;42.680;23.266;2022-12-08T06:58:16;5.72;82.99
76426;DHT22;65258;42.680;23.266;2022-12-08T07:00:42;5.91;80.91
76426;DHT22;65258;42.680;23.266;2022-12-08T07:03:08;6.42;80.88
76426;DHT22;65258;42.680;23.266;2022-12-08T07:05:35;6.47;79.33
76426;DHT22;65258;42.680;23.266;2022-12-08T07:08:02;6.58;78.35
76426;DHT22;65258;42.680;23.266;2022-12-08T07:10:28;6.58;78.07
76426;DHT22;65258;42.680;23.266;2022-12-08T07:12:53;6.69;77.67
76426;DHT22;65258;42.680;23.266;2022-12-08T07:15:19;6.97;77.46
76426;DHT22;65258;42.680;23.266;2022-12-08T07:17:46;7.14;77.26
76426;DHT22;65258;42.680;23.266;2022-12-08T07:20:11;7.72;76.18
76426;DHT22;65258;42.680;23.266;2022-12-08T07:22:37;8.23;73.40
76426;DHT22;65258;42.680;23.266;2022-12-08T07:25:03;8.73;72.38
76426;DHT22;65258;42.680;23.266;2022-12-08T07:27:28;9.03;70.72
76426;DHT22;65258;42.680;23.266;2022-12-08T07:29:54;9.18;70.24
76426;DHT22;65258;42.680;23.266;2022-12-08T07:32:19;9.20;68.83
76426;DHT22;65258;42.680;23.266;2022-12-08T07:34:45;9.47;69.72
76426;DHT22;65258;42.680;23.266;2022-12-08T07:37:10;9.44;68.29
76426;DHT22;65258;42.680;23.266;2022-12-08T07:39:36;9.40;68.67
76426;DHT22;65258;42.680;23.266;2022-12-08T07:42:02;9.24;68.73
76426;DHT22;65258;42.680;23.266;2022-12-08T07:44:27;9.13;68.48
76426;DHT22;65258;42.680;23.266;2022-12-08T07:46:53;8.92;68.60
76426;DHT22;65258;42.680;23.266;2022-12-08T07:49:18;8.75;69.10
76426;DHT22;65258;42.680;23.266;2022-12-08T07:51:44;8.47;69.78
76426;DHT22;65258;42.680;23.266;2022-12-08T07:54:12;8.03;71.05
76426;DHT22;65258;42.680;23.266;2022-12-08T07:56:38;7.82;71.96
76426;DHT22;65258;42.680;23.266;2022-12-08T07:59:04;7.82;72.45
76426;DHT22;65258;42.680;23.266;2022-12-08T08:01:31;7.77;72.60
76426;DHT22;65258;42.680;23.266;2022-12-08T08:03:59;7.73;72.74
76426;DHT22;65258;42.680;23.266;2022-12-08T08:06:26;7.63;72.94
76426;DHT22;65258;42.680;23.266;2022-12-08T08:08:52;7.51;73.00
76426;DHT22;65258;42.680;23.266;2022-12-08T08:11:18;7.52;73.67
76426;DHT22;65258;42.680;23.266;2022-12-08T08:13:43;7.58;74.15
76426;DHT22;65258;42.680;23.266;2022-12-08T08:16:09;7.66;73.72
76426;DHT22;65258;42.680;23.266;2022-12-08T08:18:36;7.77;73.59
76426;DHT22;65258;42.680;23.266;2022-12-08T08:21:02;7.94;73.14
76426;DHT22;65258;42.680;23.266;2022-12-08T08:23:28;8.07;72.55
76426;DHT22;65258;42.680;23.266;2022-12-08T08:25:57;8.16;72.28
76426;DHT22;65258;42.680;23.266;2022-12-08T08:28:23;8.30;72.24
76426;DHT22;65258;42.680;23.266;2022-12-08T08:30:48;8.44;71.91
76426;DHT22;65258;42.680;23.266;2022-12-08T08:33:14;8.54;71.22
76426;DHT22;65258;42.680;23.266;2022-12-08T08:35:40;8.65;70.47
76426;DHT22;65258;42.680;23.266;2022-12-08T08:38:06;8.69;70.60
76426;DHT22;65258;42.680;23.266;2022-12-08T08:40:32;8.75;70.32
76426;DHT22;65258;42.680;23.266;2022-12-08T08:43:03;8.72;70.36
76426;DHT22;65258;42.680;23.266;2022-12-08T08:45:30;8.62;70.01
76426;DHT22;65258;42.680;23.266;2022-12-08T08:47:55;8.65;70.31
76426;DHT22;65258;42.680;23.266;2022-12-08T08:50:21;8.61;69.97
76426;DHT22;65258;42.680;23.266;2022-12-08T08:52:47;8.47;70.43
76426;DHT22;65258;42.680;23.266;2022-12-08T08:55:12;8.34;70.97
76426;DHT22;65258;42.680;23.266;2022-12-08T08:57:38;8.28;71.17
76426;DHT22;65258;42.680;23.266;2022-12-08T09:00:04;8.30;71.64
76426;DHT22;65258;42.680;23.266;2022-12-08T09:02:30;8.42;72.26
76426;DHT22;65258;42.680;23.266;2022-12-08T09:04:55;8.51;72.09
76426;DHT22;65258;42.680;23.266;2022-12-08T09:07:21;8.55;71.74
76426;DHT22;65258;42.680;23.266;2022-12-08T09:09:47;8.60;71.29
76426;DHT22;65258;42.680;23.266;2022-12-08T09:12:12;8.65;71.12
76426;DHT22;65258;42.680;23.266;2022-12-08T09:14:38;8.73;70.48
76426;DHT22;65258;42.680;23.266;2022-12-08T09:17:06;8.88;70.54
76426;DHT22;65258;42.680;23.266;2022-12-08T09:19:32;9.03;70.54
76426;DHT22;65258;42.680;23.266;2022-12-08T09:21:58;9.20;69.83
76426;DHT22;65258;42.680;23.266;2022-12-08T09:24:24;9.36;69.88
76426;DHT22;65258;42.680;23.266;2022-12-08T09:26:49;9.43;69.83
76426;DHT22;65258;42.680;23.266;2022-12-08T09:29:16;9.61;69.60
76426;DHT22;65258;42.680;23.266;2022-12-08T09:31:42;9.81;68.93
76426;DHT22;65258;42.680;23.266;2022-12-08T09:34:10;9.90;67.57
76426;DHT22;65258;42.680;23.266;2022-12-08T09:36:35;10.09;67.91
76426;DHT22;65258;42.680;23.266;2022-12-08T09:39:01;10.21;67.22
76426;DHT22;65258;42.680;23.266;2022-12-08T09:41:42;10.24;66.16
76426;DHT22;65258;42.680;23.266;2022-12-08T09:46:46;10.32;65.60
76426;DHT22;65258;42.680;23.266;2022-12-08T09:49:15;10.36;66.53
76426;DHT22;65258;42.680;23.266;2022-12-08T09:51:43;10.48;67.01
76426;DHT22;65258;42.680;23.266;2022-12-08T09:54:20;10.50;66.93
76426;DHT22;65258;42.680;23.266;2022-12-08T09:56:53;10.69;65.92
76426;DHT22;65258;42.680;23.266;2022-12-08T09:59:32;10.77;65.06
76426;DHT22;65258;42.680;23.266;2022-12-08T10:02:00;10.76;64.68
76426;DHT22;65258;42.680;23.266;2022-12-08T10:04:37;10.73;64.04
76426;DHT22;65258;42.680;23.266;2022-12-08T10:07:16;10.96;65.09
76426;DHT22;65258;42.680;23.266;2022-12-08T10:10:46;11.21;64.45
76426;DHT22;65258;42.680;23.266;2022-12-08T10:18:09;11.86;62.61
76426;DHT22;65258;42.680;23.266;2022-12-08T10:20:39;11.89;60.91
76426;DHT22;65258;42.680;23.266;2022-12-08T10:25:47;11.40;61.25
76426;DHT22;65258;42.680;23.266;2022-12-08T10:28:13;11.44;61.28
76426;DHT22;65258;42.680;23.266;2022-12-08T10:30:39;11.40;61.10
76426;DHT22;65258;42.680;23.266;2022-12-08T10:33:11;11.41;62.41
76426;DHT22;65258;42.680;23.266;2022-12-08T10:35:47;11.38;61.38
76426;DHT22;65258;42.680;23.266;2022-12-08T10:38:30;11.34;61.48
76426;DHT22;65258;42.680;23.266;2022-12-08T10:41:03;11.44;61.09
76426;DHT22;65258;42.680;23.266;2022-12-08T10:43:31;11.38;62.57
76426;DHT22;65258;42.680;23.266;2022-12-08T10:46:13;11.40;61.54
76426;DHT22;65258;42.680;23.266;2022-12-08T10:48:55;11.38;61.42
76426;DHT22;65258;42.680;23.266;2022-12-08T10:51:28;11.38;61.35
76426;DHT22;65258;42.680;23.266;2022-12-08T10:53:55;11.50;61.54
76426;DHT22;65258;42.680;23.266;2022-12-08T10:56:27;11.54;61.08
76426;DHT22;65258;42.680;23.266;2022-12-08T10:59:15;11.58;61.01
76426;DHT22;65258;42.680;23.266;2022-12-08T11:01:45;11.52;61.28
76426;DHT22;65258;42.680;23.266;2022-12-08T11:04:17;11.60;60.82
76426;DHT22;65258;42.680;23.266;2022-12-08T11:06:44;11.60;61.37
76426;DHT22;65258;42.680;23.266;2022-12-08T11:14:25;11.71;60.75
76426;DHT22;65258;42.680;23.266;2022-12-08T11:17:03;11.68;60.44
76426;DHT22;65258;42.680;23.266;2022-12-08T11:19:30;11.48;61.12
76426;DHT22;65258;42.680;23.266;2022-12-08T11:21:55;11.55;61.48
76426;DHT22;65258;42.680;23.266;2022-12-08T11:24:25;11.60;61.11
76426;DHT22;65258;42.680;23.266;2022-12-08T11:27:03;11.68;61.54
76426;DHT22;65258;42.680;23.266;2022-12-08T11:29:31;11.86;61.25
76426;DHT22;65258;42.680;23.266;2022-12-08T11:32:12;11.88;60.18
76426;DHT22;65258;42.680;23.266;2022-12-08T11:34:48;11.81;60.19
76426;DHT22;65258;42.680;23.266;2022-12-08T11:37:24;11.79;61.02
76426;DHT22;65258;42.680;23.266;2022-12-08T11:39:53;11.88;60.56
76426;DHT22;65258;42.680;23.266;2022-12-08T11:42:21;11.91;60.19
76426;DHT22;65258;42.680;23.266;2022-12-08T11:44:59;11.91;60.75
76426;DHT22;65258;42.680;23.266;2022-12-08T11:47:35;11.92;60.00
76426;DHT22;65258;42.680;23.266;2022-12-08T11:50:31;11.99;60.12
76426;DHT22;65258;42.680;23.266;2022-12-08T11:53:01;12.06;59.85
76426;DHT22;65258;42.680;23.266;2022-12-08T11:55:33;12.06;60.20
76426;DHT22;65258;42.680;23.266;2022-12-08T11:58:10;12.18;59.61
76426;DHT22;65258;42.680;23.266;2022-12-08T12:00:37;12.26;60.04
76426;DHT22;65258;42.680;23.266;2022-12-08T12:12:08;11.92;61.23
76426;DHT22;65258;42.680;23.266;2022-12-08T12:15:03;11.92;60.27
76426;DHT22;65258;42.680;23.266;2022-12-08T12:22:48;11.68;61.91
76426;DHT22;65258;42.680;23.266;2022-12-08T12:25:18;11.74;61.32
76426;DHT22;65258;42.680;23.266;2022-12-08T12:27:45;11.85;61.04
76426;DHT22;65258;42.680;23.266;2022-12-08T12:30:22;11.81;61.20
76426;DHT22;65258;42.680;23.266;2022-12-08T12:32:59;11.83;60.81
76426;DHT22;65258;42.680;23.266;2022-12-08T12:35:35;11.83;61.12
76426;DHT22;65258;42.680;23.266;2022-12-08T12:38:04;11.92;61.10
76426;DHT22;65258;42.680;23.266;2022-12-08T12:41:01;11.86;61.11
76426;DHT22;65258;42.680;23.266;2022-12-08T12:43:31;11.91;61.17
76426;DHT22;65258;42.680;23.266;2022-12-08T12:48:49;11.93;60.84
76426;DHT22;65258;42.680;23.266;2022-12-08T12:54:25;11.92;60.72
76426;DHT22;65258;42.680;23.266;2022-12-08T13:04:57;12.03;60.55
76426;DHT22;65258;42.680;23.266;2022-12-08T13:07:26;11.99;61.02
76426;DHT22;65258;42.680;23.266;2022-12-08T13:15:40;12.03;60.65
76426;DHT22;65258;42.680;23.266;2022-12-08T13:23:49;11.92;61.36
76426;DHT22;65258;42.680;23.266;2022-12-08T13:26:25;11.89;61.36
76426;DHT22;65258;42.680;23.266;2022-12-08T13:34:39;11.92;61.18
76426;DHT22;65258;42.680;23.266;2022-12-08T13:44:48;11.71;62.12
76426;DHT22;65258;42.680;23.266;2022-12-08T13:47:20;11.65;62.19
76426;DHT22;65258;42.680;23.266;2022-12-08T13:50:08;11.67;63.72
76426;DHT22;65258;42.680;23.266;2022-12-08T13:52:51;11.70;63.35
76426;DHT22;65258;42.680;23.266;2022-12-08T13:55:25;11.71;62.93
76426;DHT22;65258;42.680;23.266;2022-12-08T13:57:54;11.71;63.77
76426;DHT22;65258;42.680;23.266;2022-12-08T14:00:22;11.67;64.68
76426;DHT22;65258;42.680;23.266;2022-12-08T14:02:50;11.62;64.22
76426;DHT22;65258;42.680;23.266;2022-12-08T14:05:19;11.51;63.67
76426;DHT22;65258;42.680;23.266;2022-12-08T14:07:47;11.48;64.26
76426;DHT22;65258;42.680;23.266;2022-12-08T14:10:25;11.47;64.84
76426;DHT22;65258;42.680;23.266;2022-12-08T14:12:59;11.45;64.56
76426;DHT22;65258;42.680;23.266;2022-12-08T14:15:26;11.30;64.90
76426;DHT22;65258;42.680;23.266;2022-12-08T14:17:53;11.28;64.85
76426;DHT22;65258;42.680;23.266;2022-12-08T14:20:24;11.31;65.30
76426;DHT22;65258;42.680;23.266;2022-12-08T14:22:51;11.32;65.65
76426;DHT22;65258;42.680;23.266;2022-12-08T14:25:17;11.28;65.41
76426;DHT22;65258;42.680;23.266;2022-12-08T14:27:44;11.20;65.29
76426;DHT22;65258;42.680;23.266;2022-12-08T14:32:43;11.11;65.16
76426;DHT22;65258;42.680;23.266;2022-12-08T14:37:39;11.03;66.75
76426;DHT22;65258;42.680;23.266;2022-12-08T14:42:50;10.77;66.52
76426;DHT22;65258;42.680;23.266;2022-12-08T14:45:17;10.68;66.99
76426;DHT22;65258;42.680;23.266;2022-12-08T14:47:43;10.60;67.48
76426;DHT22;65258;42.680;23.266;2022-12-08T14:50:39;10.59;67.55
76426;DHT22;65258;42.680;23.266;2022-12-08T14:53:13;10.50;67.95
76426;DHT22;65258;42.680;23.266;2022-12-08T14:55:41;10.45;67.88
76426;DHT22;65258;42.680;23.266;2022-12-08T14:58:16;10.41;68.28
76426;DHT22;65258;42.680;23.266;2022-12-08T15:00:48;10.28;68.45
76426;DHT22;65258;42.680;23.266;2022-12-08T15:03:17;10.19;68.60
76426;DHT22;65258;42.680;23.266;2022-12-08T15:05:50;10.14;69.31
76426;DHT22;65258;42.680;23.266;2022-12-08T15:08:16;10.07;69.03
76426;DHT22;65258;42.680;23.266;2022-12-08T15:10:41;9.99;69.37
76426;DHT22;65258;42.680;23.266;2022-12-08T15:18:12;9.74;70.31
76426;DHT22;65258;42.680;23.266;2022-12-08T15:20:41;9.67;70.50
76426;DHT22;65258;42.680;23.266;2022-12-08T15:23:28;9.53;70.72
76426;DHT22;65258;42.680;23.266;2022-12-08T15:25:55;9.43;71.28
76426;DHT22;65258;42.680;23.266;2022-12-08T15:28:26;9.39;71.64
76426;DHT22;65258;42.680;23.266;2022-12-08T15:30:53;9.33;71.74
76426;DHT22;65258;42.680;23.266;2022-12-08T15:33:19;9.27;71.94
76426;DHT22;65258;42.680;23.266;2022-12-08T15:35:47;9.27;72.20
76426;DHT22;65258;42.680;23.266;2022-12-08T15:38:19;9.26;72.35
76426;DHT22;65258;42.680;23.266;2022-12-08T15:40:46;9.20;72.78
76426;DHT22;65258;42.680;23.266;2022-12-08T15:43:12;9.19;72.72
76426;DHT22;65258;42.680;23.266;2022-12-08T15:45:38;9.15;72.77
76426;DHT22;65258;42.680;23.266;2022-12-08T15:48:03;9.11;72.95
76426;DHT22;65258;42.680;23.266;2022-12-08T15:50:29;8.93;73.75
76426;DHT22;65258;42.680;23.266;2022-12-08T15:52:55;8.91;73.79
76426;DHT22;65258;42.680;23.266;2022-12-08T15:55:21;8.93;73.78
76426;DHT22;65258;42.680;23.266;2022-12-08T15:57:51;8.92;73.71
76426;DHT22;65258;42.680;23.266;2022-12-08T16:02:47;8.92;73.89
76426;DHT22;65258;42.680;23.266;2022-12-08T16:05:13;8.93;74.17
76426;DHT22;65258;42.680;23.266;2022-12-08T16:07:39;8.96;74.19
76426;DHT22;65258;42.680;23.266;2022-12-08T16:10:05;8.93;74.15
76426;DHT22;65258;42.680;23.266;2022-12-08T16:12:31;8.95;74.18
76426;DHT22;65258;42.680;23.266;2022-12-08T16:15:16;8.98;74.09
76426;DHT22;65258;42.680;23.266;2022-12-08T16:17:41;8.95;73.83
76426;DHT22;65258;42.680;23.266;2022-12-08T16:20:14;8.96;73.71
76426;DHT22;65258;42.680;23.266;2022-12-08T16:22:41;8.96;74.05
76426;DHT22;65258;42.680;23.266;2022-12-08T16:25:07;8.98;73.96
76426;DHT22;65258;42.680;23.266;2022-12-08T16:27:36;8.98;73.98
76426;DHT22;65258;42.680;23.266;2022-12-08T16:30:06;8.99;74.01
76426;DHT22;65258;42.680;23.266;2022-12-08T16:32:32;8.93;73.89
76426;DHT22;65258;42.680;23.266;2022-12-08T16:34:57;8.91;73.90
76426;DHT22;65258;42.680;23.266;2022-12-08T16:37:25;8.83;74.01
76426;DHT22;65258;42.680;23.266;2022-12-08T16:39:52;8.71;74.31
76426;DHT22;65258;42.680;23.266;2022-12-08T16:42:20;8.57;75.00
76426;DHT22;65258;42.680;23.266;2022-12-08T16:45:06;8.51;74.84
76426;DHT22;65258;42.680;23.266;2022-12-08T16:47:32;8.44;74.93
76426;DHT22;65258;42.680;23.266;2022-12-08T16:49:58;8.26;76.40
76426;DHT22;65258;42.680;23.266;2022-12-08T16:52:23;8.21;77.10
76426;DHT22;65258;42.680;23.266;2022-12-08T16:54:49;8.21;76.56
76426;DHT22;65258;42.680;23.266;2022-12-08T16:57:15;8.13;76.77
76426;DHT22;65258;42.680;23.266;2022-12-08T16:59:40;8.10;76.77
76426;DHT22;65258;42.680;23.266;2022-12-08T17:02:06;8.11;76.85
76426;DHT22;65258;42.680;23.266;2022-12-08T17:04:32;8.09;77.10
76426;DHT22;65258;42.680;23.266;2022-12-08T17:06:58;8.06;76.48
76426;DHT22;65258;42.680;23.266;2022-12-08T17:09:24;8.03;76.27
76426;DHT22;65258;42.680;23.266;2022-12-08T17:11:50;7.99;76.63
76426;DHT22;65258;42.680;23.266;2022-12-08T17:14:16;7.93;76.97
76426;DHT22;65258;42.680;23.266;2022-12-08T17:16:43;7.96;77.41
76426;DHT22;65258;42.680;23.266;2022-12-08T17:19:09;7.90;77.23
76426;DHT22;65258;42.680;23.266;2022-12-08T17:21:36;7.96;77.42
76426;DHT22;65258;42.680;23.266;2022-12-08T17:24:02;7.99;77.14
76426;DHT22;65258;42.680;23.266;2022-12-08T17:26:28;8.00;77.15
76426;DHT22;65258;42.680;23.266;2022-12-08T17:28:53;8.04;77.08